Time;durP1;ratioP1;P1;durP2;ratioP2;P2;SDS_P1;SDS_P2;PMS_P1;PMS_P2;Temp;Humidity;BMP_temperature;BMP_pressure;BME280_temperature;BME280_humidity;BME280_pressure;Samples;Min_cycle;Max_cycle;Signal;HPM_P1;HPM_P2
2023/05/09 00:00:39;;;;;;;0.50;0.50;;;;;;;9.46;66.23;97980.00;5033222;28;20041;-69
2023/05/09 00:03:06;;;;;;;0.80;0.80;;;;;;;9.49;66.29;97971.66;5024809;28;20153;-69
2023/05/09 00:05:34;;;;;;;0.45;0.45;;;;;;;9.68;65.33;97971.16;5029869;28;20049;-69
2023/05/09 00:08:01;;;;;;;0.68;0.68;;;;;;;9.66;65.70;97962.50;5028802;28;20076;-67
2023/05/09 00:10:29;;;;;;;0.60;0.60;;;;;;;9.70;65.48;97961.16;5024145;28;20485;-67
2023/05/09 00:12:59;;;;;;;0.80;0.80;;;;;;;9.75;64.95;97963.28;5026421;28;20091;-67
2023/05/09 00:15:27;;;;;;;0.60;0.60;;;;;;;9.57;65.79;97960.91;5019879;28;20049;-68
2023/05/09 00:17:55;;;;;;;0.50;0.50;;;;;;;9.63;64.94;97964.72;5017138;28;20502;-68
2023/05/09 00:20:23;;;;;;;0.70;0.70;;;;;;;9.84;64.01;97955.03;5019167;28;20038;-69
2023/05/09 00:22:51;;;;;;;0.63;0.63;;;;;;;9.87;63.98;97961.81;5021181;28;20041;-67
2023/05/09 00:25:18;;;;;;;0.60;0.60;;;;;;;9.84;63.16;97954.22;5018466;28;20104;-68
2023/05/09 00:27:46;;;;;;;0.73;0.73;;;;;;;9.87;63.55;97951.97;5029188;28;20041;-71
2023/05/09 00:30:15;;;;;;;0.32;0.32;;;;;;;9.93;63.13;97950.44;5027311;28;20524;-68
2023/05/09 00:32:42;;;;;;;0.60;0.60;;;;;;;9.89;63.34;97944.63;5019394;28;20049;-68
2023/05/09 00:35:10;;;;;;;0.82;0.82;;;;;;;9.83;63.71;97936.56;5029104;28;20509;-68
2023/05/09 00:37:38;;;;;;;0.93;0.93;;;;;;;9.87;63.28;97941.31;5025526;28;20038;-68
2023/05/09 00:40:08;;;;;;;0.45;0.45;;;;;;;9.99;63.40;97944.38;5022070;28;20330;-68
2023/05/09 00:42:35;;;;;;;0.60;0.60;;;;;;;10.09;63.05;97928.94;5034515;28;20041;-68
2023/05/09 00:45:04;;;;;;;0.75;0.75;;;;;;;10.23;62.21;97941.50;5017058;28;20049;-68
2023/05/09 00:47:33;;;;;;;0.60;0.60;;;;;;;10.13;60.47;97930.22;5026370;28;20561;-68
2023/05/09 00:50:02;;;;;;;0.52;0.52;;;;;;;9.96;61.57;97925.28;5022882;28;20124;-68
2023/05/09 00:52:30;;;;;;;0.60;0.60;;;;;;;9.86;62.40;97931.66;5018541;28;20042;-68
2023/05/09 00:54:57;;;;;;;0.60;0.60;;;;;;;9.95;62.87;97929.78;5024407;28;20068;-68
2023/05/09 00:57:25;;;;;;;0.65;0.65;;;;;;;9.89;61.79;97919.81;5016156;28;20057;-68
2023/05/09 00:59:53;;;;;;;0.68;0.68;;;;;;;9.88;60.43;97924.31;5025684;28;20047;-68
2023/05/09 01:02:20;;;;;;;0.55;0.55;;;;;;;9.97;60.57;97918.94;5017348;28;20120;-68
2023/05/09 01:04:49;;;;;;;0.85;0.85;;;;;;;9.96;60.60;97923.44;5025929;28;20077;-68
2023/05/09 01:07:22;;;;;;;0.55;0.55;;;;;;;9.99;60.82;97923.03;5027121;28;20041;-68
2023/05/09 01:09:57;;;;;;;0.82;0.82;;;;;;;10.12;59.40;97909.06;5025007;28;20053;-69
2023/05/09 01:12:30;;;;;;;0.60;0.60;;;;;;;10.13;58.34;97916.91;5023458;28;20050;-70
2023/05/09 01:15:04;;;;;;;0.50;0.50;;;;;;;10.27;57.22;97916.13;5015059;28;20044;-70
2023/05/09 01:17:39;;;;;;;0.85;0.85;;;;;;;10.29;56.61;97913.22;5014257;28;20046;-68
2023/05/09 01:20:12;;;;;;;0.65;0.65;;;;;;;10.33;57.45;97916.38;5016792;28;20042;-68
2023/05/09 01:22:45;;;;;;;0.60;0.60;;;;;;;10.21;57.31;97908.00;5020324;28;20038;-69
2023/05/09 01:25:43;;;;;;;0.70;0.70;;;;;;;10.36;56.87;97914.16;5025113;28;20045;-68
2023/05/09 01:28:14;;;;;;;0.47;0.47;;;;;;;10.39;56.24;97904.94;5019372;28;20044;-68
2023/05/09 01:30:45;;;;;;;0.65;0.65;;;;;;;10.34;55.82;97905.53;5019691;28;20057;-69
2023/05/09 01:33:17;;;;;;;0.73;0.73;;;;;;;10.43;57.23;97911.56;5020292;28;20042;-68
2023/05/09 01:35:49;;;;;;;0.70;0.70;;;;;;;10.33;58.11;97909.19;5025696;28;20497;-68
2023/05/09 01:38:19;;;;;;;0.52;0.52;;;;;;;10.34;58.01;97913.53;5021361;28;20195;-69
2023/05/09 01:40:48;;;;;;;0.80;0.80;;;;;;;10.31;57.07;97911.22;5019822;28;20044;-69
2023/05/09 01:43:18;;;;;;;0.70;0.70;;;;;;;10.48;56.32;97920.69;5026432;28;20038;-69
2023/05/09 01:45:47;;;;;;;0.50;0.50;;;;;;;10.43;55.52;97909.75;5021051;28;20095;-69
2023/05/09 01:48:15;;;;;;;0.60;0.60;;;;;;;10.43;55.34;97919.59;5027379;28;20060;-69
2023/05/09 01:50:43;;;;;;;0.50;0.50;;;;;;;10.55;55.00;97913.59;5020357;28;20053;-69
2023/05/09 01:53:11;;;;;;;0.88;0.88;;;;;;;10.45;55.22;97906.88;5022768;28;20501;-69
2023/05/09 01:55:40;;;;;;;0.50;0.50;;;;;;;10.48;54.63;97915.38;5026726;28;20115;-69
2023/05/09 01:58:08;;;;;;;0.70;0.70;;;;;;;10.45;55.06;97912.22;5025062;28;20045;-71
2023/05/09 02:00:36;;;;;;;0.75;0.75;;;;;;;10.12;55.87;97903.75;5027170;28;20044;-69
2023/05/09 02:03:05;;;;;;;0.60;0.60;;;;;;;10.35;55.47;97907.19;5016630;28;20065;-68
2023/05/09 02:05:33;;;;;;;0.77;0.77;;;;;;;10.35;55.36;97907.19;5021903;28;20056;-69
2023/05/09 02:08:01;;;;;;;0.57;0.57;;;;;;;10.34;55.26;97897.50;5019978;28;20050;-69
2023/05/09 02:10:32;;;;;;;0.70;0.70;;;;;;;10.33;55.20;97893.19;5025950;28;20583;-69
2023/05/09 02:13:00;;;;;;;0.77;0.77;;;;;;;10.30;55.36;97889.03;5024482;28;20041;-68
2023/05/09 02:15:29;;;;;;;0.50;0.50;;;;;;;10.22;55.49;97885.66;5026445;28;20042;-68
2023/05/09 02:17:56;;;;;;;1.02;1.02;;;;;;;10.38;55.30;97890.81;5026771;28;20095;-67
2023/05/09 02:20:25;;;;;;;0.60;0.60;;;;;;;10.26;55.39;97894.94;5014233;28;20057;-67
2023/05/09 02:22:53;;;;;;;0.50;0.50;;;;;;;10.21;55.40;97889.34;5019522;28;20049;-68
2023/05/09 02:25:20;;;;;;;0.63;0.63;;;;;;;10.16;55.42;97895.19;5018927;28;20046;-67
2023/05/09 02:27:48;;;;;;;0.70;0.70;;;;;;;10.05;55.55;97892.16;5015861;28;20428;-67
2023/05/09 02:30:22;;;;;;;0.70;0.70;;;;;;;10.03;55.71;97889.69;5025663;28;20037;-69
2023/05/09 02:32:52;;;;;;;0.20;0.20;;;;;;;10.16;55.70;97905.03;5031689;28;20460;-67
2023/05/09 02:35:20;;;;;;;0.60;0.60;;;;;;;10.08;55.92;97897.13;5023325;28;20041;-68
2023/05/09 02:37:49;;;;;;;0.50;0.50;;;;;;;10.20;55.36;97895.69;5016801;28;20508;-68
2023/05/09 02:40:17;;;;;;;0.85;0.85;;;;;;;9.92;56.23;97893.63;5021018;28;20045;-67
2023/05/09 02:42:45;;;;;;;0.52;0.52;;;;;;;9.68;56.90;97893.88;5023099;28;20097;-68
2023/05/09 02:45:12;;;;;;;0.73;0.73;;;;;;;9.77;56.86;97892.78;5023803;28;20049;-66
2023/05/09 02:47:41;;;;;;;0.90;0.90;;;;;;;9.56;57.22;97881.97;5021345;28;20208;-67
2023/05/09 02:50:08;;;;;;;0.70;0.70;;;;;;;9.59;57.17;97889.63;5021706;28;20041;-68
2023/05/09 02:52:38;;;;;;;0.60;0.60;;;;;;;9.67;57.05;97891.38;5020417;28;20040;-67
2023/05/09 02:55:08;;;;;;;0.73;0.73;;;;;;;9.44;57.31;97886.13;5019183;28;20045;-69
2023/05/09 02:57:39;;;;;;;0.63;0.63;;;;;;;9.40;57.45;97882.16;5012237;28;20502;-67
2023/05/09 03:00:08;;;;;;;0.70;0.70;;;;;;;9.62;56.90;97886.59;5018450;28;20053;-67
2023/05/09 03:02:36;;;;;;;0.57;0.57;;;;;;;9.50;57.04;97883.56;5026007;28;20034;-68
2023/05/09 03:05:06;;;;;;;0.50;0.50;;;;;;;9.51;56.92;97877.22;5021758;28;20132;-70
2023/05/09 03:07:35;;;;;;;0.57;0.57;;;;;;;9.48;57.26;97882.06;5017422;28;20052;-68
2023/05/09 03:10:04;;;;;;;0.70;0.70;;;;;;;9.45;57.21;97874.44;5019717;28;20531;-68
2023/05/09 03:12:33;;;;;;;0.47;0.47;;;;;;;9.55;56.71;97883.81;5020209;28;20088;-68
2023/05/09 03:15:01;;;;;;;0.70;0.70;;;;;;;9.49;57.06;97875.72;5014980;28;20038;-68
2023/05/09 03:17:29;;;;;;;0.20;0.20;;;;;;;9.46;57.02;97876.09;5022574;28;20410;-70
2023/05/09 03:19:57;;;;;;;0.70;0.70;;;;;;;9.41;57.28;97871.31;5023862;28;20041;-67
2023/05/09 03:22:24;;;;;;;0.70;0.70;;;;;;;9.33;57.63;97875.91;5024000;28;20061;-68
2023/05/09 03:25:00;;;;;;;0.60;0.60;;;;;;;9.29;57.59;97867.41;5024281;28;20087;-69
2023/05/09 03:27:28;;;;;;;0.95;0.68;;;;;;;9.36;57.40;97868.34;5020852;28;20056;-70
2023/05/09 03:29:57;;;;;;;0.73;0.73;;;;;;;9.29;57.61;97869.25;5027411;28;20055;-70
2023/05/09 03:32:26;;;;;;;0.60;0.60;;;;;;;9.16;58.03;97868.03;5019052;28;20117;-70
2023/05/09 03:34:54;;;;;;;0.70;0.70;;;;;;;9.09;58.18;97867.09;5021701;28;20037;-69
2023/05/09 03:37:21;;;;;;;0.90;0.90;;;;;;;9.13;58.19;97863.06;5018509;28;20049;-69
2023/05/09 03:39:51;;;;;;;0.70;0.70;;;;;;;9.08;58.21;97860.09;5028190;28;20652;-69
2023/05/09 03:42:20;;;;;;;0.50;0.50;;;;;;;9.11;58.31;97877.56;5020405;28;20057;-69
2023/05/09 03:44:49;;;;;;;0.98;0.98;;;;;;;9.03;58.28;97867.78;5024919;28;20042;-69
2023/05/09 03:47:21;;;;;;;0.55;0.55;;;;;;;9.02;58.30;97871.47;5022305;28;20567;-69
2023/05/09 03:49:49;;;;;;;0.75;0.75;;;;;;;8.97;58.67;97879.16;5025358;28;20203;-69
2023/05/09 03:52:20;;;;;;;0.65;0.65;;;;;;;8.96;58.72;97874.00;5023673;28;20124;-70
2023/05/09 03:54:48;;;;;;;0.90;0.90;;;;;;;8.92;58.79;97870.88;5022882;28;20081;-68
2023/05/09 03:57:16;;;;;;;0.70;0.70;;;;;;;9.03;58.63;97874.97;5019501;28;20065;-66
2023/05/09 03:59:45;;;;;;;0.60;0.60;;;;;;;9.02;58.47;97876.81;5031346;28;20041;-69
2023/05/09 04:02:16;;;;;;;0.73;0.73;;;;;;;8.99;58.75;97882.47;5023747;28;20034;-69
2023/05/09 04:04:47;;;;;;;0.70;0.70;;;;;;;8.98;58.83;97874.66;5018816;28;20102;-70
2023/05/09 04:07:17;;;;;;;0.73;0.73;;;;;;;8.95;58.71;97881.16;5020891;28;20038;-68
2023/05/09 04:09:46;;;;;;;0.50;0.50;;;;;;;8.98;58.65;97875.50;5022165;28;20083;-70
2023/05/09 04:12:13;;;;;;;0.47;0.47;;;;;;;8.97;58.56;97865.00;5024182;28;20053;-67
2023/05/09 04:14:42;;;;;;;0.52;0.52;;;;;;;8.92;58.80;97881.53;5028297;28;20049;-69
2023/05/09 04:17:09;;;;;;;0.50;0.50;;;;;;;8.94;58.92;97868.84;5020578;28;20041;-69
2023/05/09 04:19:37;;;;;;;0.60;0.60;;;;;;;8.95;58.97;97875.84;5028682;28;20042;-70
2023/05/09 04:22:06;;;;;;;0.70;0.70;;;;;;;8.99;58.84;97878.97;5026094;28;20029;-69
2023/05/09 04:24:33;;;;;;;0.85;0.85;;;;;;;8.89;58.94;97873.06;5019952;28;20050;-70
2023/05/09 04:27:01;;;;;;;1.23;1.23;;;;;;;8.93;59.05;97874.38;5018323;28;20041;-67
2023/05/09 04:29:30;;;;;;;0.65;0.65;;;;;;;8.93;58.89;97869.06;5026344;28;20497;-68
2023/05/09 04:31:58;;;;;;;0.60;0.60;;;;;;;9.02;58.73;97860.84;5020680;28;20077;-68
2023/05/09 04:34:26;;;;;;;0.68;0.68;;;;;;;8.96;58.99;97866.03;5029375;28;20041;-68
2023/05/09 04:36:56;;;;;;;0.57;0.57;;;;;;;8.90;59.17;97866.75;5022518;28;20045;-68
2023/05/09 04:39:25;;;;;;;0.60;0.60;;;;;;;8.97;58.99;97873.84;5028984;28;20398;-68
2023/05/09 04:42:01;;;;;;;0.80;0.80;;;;;;;9.02;58.80;97868.81;5025139;28;20069;-68
2023/05/09 04:44:29;;;;;;;0.70;0.70;;;;;;;9.06;58.81;97866.59;5029169;28;20513;-70
2023/05/09 04:46:57;;;;;;;0.82;0.82;;;;;;;8.99;59.08;97871.81;5022972;28;20042;-69
2023/05/09 04:49:25;;;;;;;0.63;0.63;;;;;;;9.04;58.85;97860.63;5018158;28;20052;-70
2023/05/09 04:51:52;;;;;;;0.60;0.60;;;;;;;9.08;58.78;97870.75;5015313;28;20113;-70
2023/05/09 04:54:20;;;;;;;0.20;0.20;;;;;;;9.06;58.82;97867.44;5017508;28;20504;-70
2023/05/09 04:56:53;;;;;;;0.75;0.75;;;;;;;9.13;58.78;97862.25;5021030;28;20068;-67
2023/05/09 04:59:35;;;;;;;0.52;0.52;;;;;;;9.15;58.48;97858.38;5025793;28;20148;-69
2023/05/09 05:02:03;;;;;;;0.65;0.65;;;;;;;9.21;58.49;97846.19;5021677;28;20528;-68
2023/05/09 05:04:31;;;;;;;0.30;0.20;;;;;;;9.27;58.62;97855.28;5018139;28;20483;-69
2023/05/09 05:06:59;;;;;;;0.28;0.28;;;;;;;9.26;58.43;97851.78;5018377;28;20465;-69
2023/05/09 05:09:27;;;;;;;0.70;0.70;;;;;;;9.32;58.35;97848.44;5023741;28;20058;-69
2023/05/09 05:11:56;;;;;;;0.20;0.20;;;;;;;9.40;58.17;97852.84;5023245;28;20421;-69
2023/05/09 05:14:29;;;;;;;0.47;0.47;;;;;;;9.44;58.09;97851.50;5019444;28;20076;-69
2023/05/09 05:16:57;;;;;;;0.88;0.88;;;;;;;9.52;58.12;97849.56;5020343;28;20038;-69
2023/05/09 05:19:24;;;;;;;0.73;0.73;;;;;;;9.63;57.63;97850.97;5025450;28;20054;-68
2023/05/09 05:21:52;;;;;;;0.10;0.10;;;;;;;9.66;57.64;97853.25;5026302;28;20450;-68
2023/05/09 05:24:20;;;;;;;0.63;0.63;;;;;;;9.70;57.52;97849.22;5022028;28;20033;-68
2023/05/09 05:26:50;;;;;;;0.73;0.73;;;;;;;9.75;57.64;97846.00;5029821;28;20041;-69
2023/05/09 05:29:20;;;;;;;0.65;0.65;;;;;;;9.80;57.15;97854.28;5021817;28;20088;-69
2023/05/09 05:31:47;;;;;;;0.50;0.50;;;;;;;9.84;57.26;97843.06;5032137;28;20092;-70
2023/05/09 05:34:15;;;;;;;0.68;0.68;;;;;;;9.93;57.18;97844.63;5025404;28;20037;-69
2023/05/09 05:36:46;;;;;;;0.60;0.60;;;;;;;10.03;56.57;97838.19;5021500;28;20111;-69
2023/05/09 05:39:14;;;;;;;0.57;0.57;;;;;;;9.97;56.54;97844.28;5018227;28;20068;-69
2023/05/09 05:41:41;;;;;;;0.77;0.77;;;;;;;10.07;56.37;97847.47;5016806;28;20049;-68
2023/05/09 05:44:10;;;;;;;0.75;0.75;;;;;;;10.14;56.27;97835.06;5020285;28;20091;-68
2023/05/09 05:46:39;;;;;;;0.20;0.20;;;;;;;10.24;55.89;97840.97;5023095;28;20412;-68
2023/05/09 05:49:07;;;;;;;1.02;1.02;;;;;;;10.25;55.51;97832.78;5018430;28;20073;-68
2023/05/09 05:51:35;;;;;;;0.57;0.57;;;;;;;10.34;55.78;97828.16;5018780;28;20049;-68
2023/05/09 05:54:04;;;;;;;0.55;0.55;;;;;;;10.46;55.22;97833.84;5022940;28;20037;-69
2023/05/09 05:56:33;;;;;;;0.40;0.40;;;;;;;10.52;55.09;97822.38;5019870;28;20045;-68
2023/05/09 05:59:01;;;;;;;0.68;0.68;;;;;;;10.57;55.00;97818.16;5015334;28;20046;-68
2023/05/09 06:01:29;;;;;;;0.75;0.75;;;;;;;10.68;55.18;97818.69;5019272;28;20037;-68
2023/05/09 06:03:59;;;;;;;0.75;0.75;;;;;;;10.72;54.56;97818.09;5030537;28;20084;-68
2023/05/09 06:06:29;;;;;;;0.70;0.70;;;;;;;10.82;53.91;97817.78;5028109;28;20041;-68
2023/05/09 06:08:57;;;;;;;0.98;0.98;;;;;;;10.95;53.92;97823.25;5026997;28;20042;-69
2023/05/09 06:11:25;;;;;;;0.73;0.73;;;;;;;10.98;53.21;97815.69;5027353;28;20057;-69
2023/05/09 06:13:52;;;;;;;0.80;0.80;;;;;;;11.07;53.33;97807.53;5021694;28;20057;-68
2023/05/09 06:16:20;;;;;;;0.93;0.93;;;;;;;11.15;52.83;97816.25;5025684;28;20482;-68
2023/05/09 06:18:50;;;;;;;0.80;0.80;;;;;;;11.22;53.23;97810.94;5023300;28;20378;-69
2023/05/09 06:21:22;;;;;;;0.70;0.70;;;;;;;11.36;52.53;97816.22;5021742;28;20065;-69
2023/05/09 06:23:50;;;;;;;0.95;0.95;;;;;;;11.36;51.83;97810.03;5022391;28;20034;-69
2023/05/09 06:26:37;;;;;;;0.73;0.73;;;;;;;11.35;51.77;97808.38;5031054;28;20482;-69
2023/05/09 06:29:06;;;;;;;1.10;1.10;;;;;;;11.45;51.57;97806.19;5018143;28;20044;-69
2023/05/09 06:31:37;;;;;;;0.75;0.75;;;;;;;11.45;51.68;97805.34;5024025;28;20052;-69
2023/05/09 06:34:05;;;;;;;0.60;0.60;;;;;;;11.51;51.34;97804.59;5023096;28;20683;-68
2023/05/09 06:36:34;;;;;;;0.60;0.60;;;;;;;11.60;50.80;97803.44;5020542;28;20046;-68
2023/05/09 06:39:02;;;;;;;0.63;0.63;;;;;;;11.64;50.03;97797.47;5022632;28;20042;-69
2023/05/09 06:41:29;;;;;;;0.85;0.85;;;;;;;11.66;50.22;97802.63;5019567;28;20050;-69
2023/05/09 06:43:57;;;;;;;0.45;0.45;;;;;;;11.71;49.94;97806.38;5019254;28;20053;-69
2023/05/09 06:46:24;;;;;;;0.20;0.20;;;;;;;11.73;49.05;97796.28;5021842;28;20412;-69
2023/05/09 06:48:52;;;;;;;0.73;0.73;;;;;;;11.91;49.72;97798.50;5019248;28;20502;-69
2023/05/09 06:51:20;;;;;;;0.10;0.10;;;;;;;12.03;49.01;97786.22;5025537;28;20437;-69
2023/05/09 06:53:49;;;;;;;0.50;0.50;;;;;;;12.15;48.75;97783.78;5023835;28;20048;-68
2023/05/09 06:56:18;;;;;;;0.20;0.20;;;;;;;12.37;48.25;97779.13;5024212;28;20460;-69
2023/05/09 06:58:46;;;;;;;0.50;0.50;;;;;;;12.45;47.33;97777.09;5022869;28;20493;-69
2023/05/09 07:01:14;;;;;;;0.63;0.63;;;;;;;12.61;46.35;97775.91;5023946;28;20088;-68
2023/05/09 07:03:41;;;;;;;0.80;0.80;;;;;;;12.76;46.45;97765.84;5026154;28;20041;-69
2023/05/09 07:06:09;;;;;;;0.57;0.57;;;;;;;12.93;46.48;97763.56;5028276;28;20448;-69
2023/05/09 07:08:36;;;;;;;0.50;0.50;;;;;;;13.10;45.45;97762.13;5029166;28;20049;-69
2023/05/09 07:11:05;;;;;;;0.50;0.50;;;;;;;13.20;45.06;97761.75;5030578;28;20103;-68
2023/05/09 07:13:33;;;;;;;0.60;0.60;;;;;;;13.39;45.27;97752.84;5023725;28;20038;-69
2023/05/09 07:16:00;;;;;;;0.57;0.57;;;;;;;13.44;44.32;97760.28;5033750;28;20045;-69
2023/05/09 07:18:28;;;;;;;0.68;0.68;;;;;;;13.45;44.76;97753.88;5030138;28;20108;-68
2023/05/09 07:20:56;;;;;;;0.90;0.90;;;;;;;13.55;44.33;97757.78;5032578;28;20445;-68
2023/05/09 07:23:24;;;;;;;0.50;0.50;;;;;;;13.70;43.91;97756.75;5023096;28;20498;-69
2023/05/09 07:25:57;;;;;;;0.55;0.55;;;;;;;13.81;43.93;97758.75;5025842;28;20053;-68
2023/05/09 07:28:25;;;;;;;0.60;0.60;;;;;;;13.98;43.61;97759.13;5031491;28;20042;-70
2023/05/09 07:30:55;;;;;;;0.10;0.10;;;;;;;14.12;42.84;97750.78;5019920;28;20411;-70
2023/05/09 07:33:22;;;;;;;0.55;0.55;;;;;;;14.31;42.78;97749.91;5029964;28;20038;-69
2023/05/09 07:35:51;;;;;;;0.70;0.70;;;;;;;14.37;43.22;97750.06;5025909;28;20041;-69
2023/05/09 07:38:19;;;;;;;0.65;0.65;;;;;;;14.58;42.71;97737.16;5031374;28;20045;-69
2023/05/09 07:40:46;;;;;;;0.50;0.50;;;;;;;14.74;42.82;97732.31;5031660;28;20045;-69
2023/05/09 07:43:14;;;;;;;0.43;0.43;;;;;;;14.91;42.61;97726.19;5016425;28;20152;-70
2023/05/09 07:45:43;;;;;;;0.50;0.50;;;;;;;14.91;41.94;97720.81;5016219;28;20116;-70
2023/05/09 07:48:11;;;;;;;0.60;0.60;;;;;;;14.99;42.37;97717.00;5014353;28;20130;-68
2023/05/09 07:50:39;;;;;;;0.60;0.60;;;;;;;15.16;42.01;97709.25;5032451;28;20095;-68
2023/05/09 07:53:07;;;;;;;0.50;0.50;;;;;;;15.42;41.89;97704.41;5029846;28;20033;-69
2023/05/09 07:55:35;;;;;;;0.43;0.43;;;;;;;15.50;40.99;97699.78;5017296;28;20041;-69
2023/05/09 07:58:02;;;;;;;1.08;1.08;;;;;;;15.54;41.02;97709.06;5018517;28;20514;-69
2023/05/09 08:00:30;;;;;;;0.52;0.52;;;;;;;15.71;40.88;97700.19;5023214;28;20582;-70
2023/05/09 08:02:59;;;;;;;0.50;0.50;;;;;;;15.79;40.25;97689.13;5028934;28;20045;-69
2023/05/09 08:05:27;;;;;;;0.40;0.40;;;;;;;16.06;39.45;97696.88;5029923;28;20045;-69
2023/05/09 08:07:54;;;;;;;0.10;0.10;;;;;;;16.09;39.42;97697.22;5030620;28;20401;-70
2023/05/09 08:10:22;;;;;;;0.70;0.70;;;;;;;16.36;39.27;97694.19;5035804;28;20056;-69
2023/05/09 08:12:50;;;;;;;0.40;0.40;;;;;;;16.36;38.40;97681.56;5030845;28;20042;-69
2023/05/09 08:15:18;;;;;;;0.45;0.45;;;;;;;16.36;37.82;97681.56;5031842;28;20044;-69
2023/05/09 08:17:45;;;;;;;0.77;0.77;;;;;;;16.49;37.74;97675.16;5026851;28;20073;-69
2023/05/09 08:20:14;;;;;;;0.10;0.10;;;;;;;16.74;35.93;97683.06;5014884;28;20438;-70
2023/05/09 08:22:42;;;;;;;0.40;0.40;;;;;;;16.76;35.49;97676.41;5027966;28;20048;-69
2023/05/09 08:25:09;;;;;;;0.40;0.40;;;;;;;16.91;35.39;97669.75;5024305;28;20096;-69
2023/05/09 08:27:37;;;;;;;0.57;0.57;;;;;;;17.19;34.17;97668.00;5028305;28;20057;-69
2023/05/09 08:30:06;;;;;;;0.60;0.60;;;;;;;17.19;34.21;97653.69;5020271;28;20037;-69
2023/05/09 08:32:33;;;;;;;0.50;0.50;;;;;;;17.17;35.15;97664.72;5033019;22;20033;-75
2023/05/09 08:35:01;;;;;;;0.45;0.45;;;;;;;17.37;34.76;97663.53;5028789;28;20070;-74
2023/05/09 08:37:30;;;;;;;0.50;0.50;;;;;;;17.28;35.23;97662.25;5029902;28;20561;-75
2023/05/09 08:39:58;;;;;;;0.40;0.40;;;;;;;17.43;34.77;97662.59;5033248;28;20049;-74
2023/05/09 08:42:25;;;;;;;0.57;0.57;;;;;;;17.51;35.15;97665.75;5021912;28;20467;-74
2023/05/09 08:44:53;;;;;;;0.75;0.75;;;;;;;17.65;35.43;97655.53;5018918;28;20501;-74
2023/05/09 08:47:21;;;;;;;0.68;0.68;;;;;;;17.83;35.08;97655.38;5009381;28;20101;-74
2023/05/09 08:49:50;;;;;;;0.40;0.40;;;;;;;17.88;34.55;97649.25;5013846;28;20099;-74
2023/05/09 08:52:18;;;;;;;0.47;0.47;;;;;;;17.89;35.21;97645.50;5008408;28;20046;-74
2023/05/09 08:54:46;;;;;;;0.50;0.50;;;;;;;18.01;35.40;97646.28;5011676;28;20507;-74
2023/05/09 08:57:15;;;;;;;0.65;0.65;;;;;;;18.43;34.75;97638.69;5006885;28;20045;-75
2023/05/09 08:59:44;;;;;;;0.30;0.30;;;;;;;18.65;34.37;97639.66;5011502;28;20062;-74
2023/05/09 09:02:13;;;;;;;0.30;0.30;;;;;;;18.73;33.60;97640.28;5006693;28;20561;-75
2023/05/09 09:04:40;;;;;;;0.50;0.50;;;;;;;18.79;33.92;97639.34;5012313;28;20063;-74
2023/05/09 09:07:09;;;;;;;0.57;0.57;;;;;;;18.89;34.65;97628.69;5009278;28;20443;-74
2023/05/09 09:09:37;;;;;;;0.40;0.40;;;;;;;19.08;33.96;97638.16;5007088;28;20050;-74
2023/05/09 09:12:08;;;;;;;0.10;0.10;;;;;;;18.86;33.84;97627.28;5023857;28;20460;-74
2023/05/09 09:14:38;;;;;;;0.32;0.32;;;;;;;19.07;33.37;97636.53;5012777;28;20052;-74
2023/05/09 09:17:07;;;;;;;0.65;0.65;;;;;;;19.18;34.12;97627.50;5015790;28;20053;-74
2023/05/09 09:19:35;;;;;;;0.47;0.47;;;;;;;19.36;33.47;97626.38;5012848;28;20046;-73
2023/05/09 09:22:04;;;;;;;0.38;0.38;;;;;;;19.38;31.49;97619.66;5012340;28;20049;-74
2023/05/09 09:24:32;;;;;;;0.35;0.35;;;;;;;19.59;31.16;97614.53;5013406;28;20164;-76
2023/05/09 09:27:04;;;;;;;0.40;0.40;;;;;;;19.07;31.80;97609.47;5011986;28;20045;-75
2023/05/09 09:29:33;;;;;;;0.40;0.40;;;;;;;19.14;32.53;97614.69;5011752;28;20041;-75
2023/05/09 09:32:02;;;;;;;0.40;0.40;;;;;;;19.23;32.43;97603.19;5012002;28;20045;-75
2023/05/09 09:34:30;;;;;;;0.57;0.57;;;;;;;19.61;31.77;97598.84;5012062;28;20064;-75
2023/05/09 09:36:58;;;;;;;0.20;0.20;;;;;;;19.65;31.66;97602.69;5011860;28;20327;-75
2023/05/09 09:39:25;;;;;;;0.40;0.40;;;;;;;19.77;31.73;97597.97;5011710;28;20401;-75
2023/05/09 09:41:53;;;;;;;0.50;0.50;;;;;;;19.59;31.15;97598.28;5015526;28;20054;-75
2023/05/09 09:44:22;;;;;;;0.40;0.40;;;;;;;19.58;31.27;97580.41;5010744;28;20041;-75
2023/05/09 09:46:53;;;;;;;0.43;0.43;;;;;;;19.72;31.43;97587.91;5011505;28;20041;-75
2023/05/09 09:49:22;;;;;;;0.30;0.30;;;;;;;19.96;31.05;97577.56;5016132;28;20141;-75
2023/05/09 09:51:51;;;;;;;0.47;0.47;;;;;;;20.24;31.04;97575.69;5012050;28;20104;-75
2023/05/09 09:54:19;;;;;;;0.32;0.32;;;;;;;20.28;30.94;97572.19;5012524;28;20094;-75
2023/05/09 09:56:48;;;;;;;0.38;0.38;;;;;;;20.29;30.36;97564.88;5011908;28;20092;-75
2023/05/09 09:59:18;;;;;;;0.30;0.30;;;;;;;19.85;31.38;97569.59;5008363;28;20141;-74
2023/05/09 10:01:58;;;;;;;0.45;0.45;;;;;;;20.04;30.29;97562.75;5011256;28;20488;-74
2023/05/09 10:04:28;;;;;;;0.50;0.50;;;;;;;19.95;30.79;97554.25;5011071;28;20563;-74
2023/05/09 10:06:57;;;;;;;0.45;0.45;;;;;;;20.03;30.42;97542.97;5011427;28;20088;-75
2023/05/09 10:09:26;;;;;;;0.40;0.40;;;;;;;20.23;31.07;97555.91;5008932;28;20190;-75
2023/05/09 10:11:54;;;;;;;0.30;0.30;;;;;;;20.48;30.97;97558.84;5011570;28;20054;-74
2023/05/09 10:14:23;;;;;;;0.43;0.43;;;;;;;20.74;30.87;97556.34;5011754;28;20676;-74
2023/05/09 10:16:52;;;;;;;0.40;0.40;;;;;;;20.88;29.23;97542.06;5012973;28;20098;-74
2023/05/09 10:19:22;;;;;;;0.22;0.22;;;;;;;20.86;29.48;97538.81;5017305;28;20049;-76
2023/05/09 10:21:52;;;;;;;0.30;0.30;;;;;;;20.72;29.49;97545.75;5012370;28;20071;-74
2023/05/09 10:24:25;;;;;;;0.35;0.35;;;;;;;21.03;29.39;97543.22;5012313;28;20053;-77
2023/05/09 10:26:53;;;;;;;0.38;0.38;;;;;;;20.68;29.10;97543.81;5012053;28;20038;-75
2023/05/09 10:29:23;;;;;;;0.00;0.00;;;;;;;20.73;29.18;97533.00;5011368;28;20474;-74
2023/05/09 10:31:54;;;;;;;0.38;0.38;;;;;;;20.97;28.53;97536.16;5011485;28;20068;-74
2023/05/09 10:34:25;;;;;;;0.30;0.30;;;;;;;21.22;28.62;97537.13;5013062;28;20042;-74
2023/05/09 10:36:53;;;;;;;0.35;0.35;;;;;;;21.28;27.69;97531.72;5011650;28;20052;-74
2023/05/09 10:39:22;;;;;;;0.43;0.43;;;;;;;20.98;28.28;97532.34;5012817;28;20054;-74
2023/05/09 10:41:49;;;;;;;0.28;0.28;;;;;;;21.26;27.20;97520.31;5015357;28;20112;-74
2023/05/09 10:44:17;;;;;;;0.43;0.43;;;;;;;21.12;27.27;97519.94;5011971;28;20088;-74
2023/05/09 10:46:45;;;;;;;0.43;0.43;;;;;;;21.26;27.55;97518.41;5011509;28;20069;-74
2023/05/09 10:49:13;;;;;;;0.00;0.00;;;;;;;21.31;27.85;97513.00;5012373;28;20456;-75
2023/05/09 10:51:42;;;;;;;0.50;0.50;;;;;;;21.55;27.68;97499.78;5011321;28;20049;-74
2023/05/09 10:54:14;;;;;;;0.30;0.30;;;;;;;21.54;28.00;97501.69;5012365;28;20046;-74
2023/05/09 10:56:42;;;;;;;0.30;0.30;;;;;;;21.70;27.00;97488.16;5012390;28;20046;-74
2023/05/09 10:59:36;;;;;;;0.30;0.30;;;;;;;21.63;27.01;97493.00;5012857;28;20042;-74
2023/05/09 11:02:04;;;;;;;0.22;0.22;;;;;;;21.76;27.89;97485.16;5013815;28;20042;-74
2023/05/09 11:04:32;;;;;;;0.20;0.20;;;;;;;21.45;26.14;97484.28;5012522;28;20685;-74
2023/05/09 11:07:01;;;;;;;0.20;0.20;;;;;;;21.42;27.06;97482.06;5013307;28;20042;-74
2023/05/09 11:09:31;;;;;;;0.30;0.30;;;;;;;21.51;26.12;97477.75;5013440;28;20038;-74
2023/05/09 11:12:10;;;;;;;0.30;0.30;;;;;;;21.59;24.82;97471.78;5005311;28;20478;-74
2023/05/09 11:14:40;;;;;;;0.28;0.28;;;;;;;21.96;24.93;97474.31;5010746;28;20345;-74
2023/05/09 11:17:09;;;;;;;0.30;0.30;;;;;;;21.91;25.18;97468.84;5013497;28;20097;-75
2023/05/09 11:19:43;;;;;;;0.40;0.40;;;;;;;22.06;26.36;97462.66;5009742;28;20160;-74
2023/05/09 11:22:14;;;;;;;0.20;0.20;;;;;;;22.12;24.83;97453.41;5014158;28;20050;-74
2023/05/09 11:24:46;;;;;;;0.30;0.30;;;;;;;21.80;26.06;97456.34;5014950;28;20042;-74
2023/05/09 11:27:15;;;;;;;0.30;0.30;;;;;;;22.31;25.84;97445.53;5013758;28;20037;-75
2023/05/09 11:29:43;;;;;;;0.22;0.22;;;;;;;22.53;25.12;97445.25;5012533;28;20100;-75
2023/05/09 11:32:13;;;;;;;0.10;0.10;;;;;;;22.28;26.02;97440.63;5013221;28;20417;-74
2023/05/09 11:34:43;;;;;;;0.30;0.30;;;;;;;22.42;25.59;97446.34;5012909;28;20125;-76
2023/05/09 11:37:12;;;;;;;0.38;0.38;;;;;;;22.59;25.41;97428.63;5012162;28;20053;-75
2023/05/09 11:39:57;;;;;;;0.25;0.25;;;;;;;22.73;24.88;97433.50;5011995;28;20042;-75
2023/05/09 11:42:25;;;;;;;0.30;0.30;;;;;;;22.85;25.34;97426.66;5015500;28;20128;-75
2023/05/09 11:44:53;;;;;;;0.20;0.20;;;;;;;23.10;24.50;97417.59;5015768;28;20046;-75